Time;durP1;ratioP1;P1;durP2;ratioP2;P2;SDS_P1;SDS_P2;PMS_P1;PMS_P2;Temp;Humidity;BMP_temperature;BMP_pressure;BME280_temperature;BME280_humidity;BME280_pressure;Samples;Min_cycle;Max_cycle;Signal;HPM_P1;HPM_P2
2021/09/13 00:00:07;;;;;;;4.43;4.03;;;16.40;99.90;;;;;;5046696;28;20021;-74
2021/09/13 00:02:32;;;;;;;5.15;4.65;;;16.40;99.90;;;;;;5032276;28;20017;-74
2021/09/13 00:04:58;;;;;;;6.28;3.90;;;16.40;99.90;;;;;;5032332;28;20051;-74
2021/09/13 00:07:24;;;;;;;4.45;3.72;;;16.40;99.90;;;;;;5038693;28;20138;-74
2021/09/13 00:09:50;;;;;;;7.97;3.78;;;16.40;99.90;;;;;;5050637;28;20025;-74
2021/09/13 00:12:15;;;;;;;5.85;4.13;;;16.30;99.90;;;;;;5052386;28;20481;-74
2021/09/13 00:14:41;;;;;;;5.05;4.32;;;16.30;99.90;;;;;;5052255;28;20040;-74
2021/09/13 00:17:06;;;;;;;5.53;4.05;;;16.20;99.90;;;;;;5052140;28;20031;-74
2021/09/13 00:19:32;;;;;;;5.57;4.90;;;16.20;99.90;;;;;;5052103;28;20029;-74
2021/09/13 00:21:57;;;;;;;7.30;4.65;;;16.20;99.90;;;;;;5050582;28;20346;-75
2021/09/13 00:24:23;;;;;;;8.35;5.45;;;16.20;99.90;;;;;;5051837;28;20028;-74
2021/09/13 00:26:49;;;;;;;5.60;3.90;;;16.10;99.90;;;;;;5051911;28;20504;-74
2021/09/13 00:29:15;;;;;;;6.25;5.65;;;16.10;99.90;;;;;;5050751;28;20029;-75
2021/09/13 00:31:41;;;;;;;8.73;5.57;;;16.10;99.90;;;;;;5051724;28;20024;-75
2021/09/13 00:34:06;;;;;;;5.18;4.68;;;16.20;99.90;;;;;;5050594;28;20056;-75
2021/09/13 00:36:32;;;;;;;11.70;5.10;;;16.30;99.90;;;;;;5052355;28;20021;-74
2021/09/13 00:38:57;;;;;;;5.80;5.20;;;16.30;99.90;;;;;;5052080;28;20029;-75
2021/09/13 00:41:23;;;;;;;12.68;5.78;;;16.20;99.90;;;;;;5051892;28;20056;-75
2021/09/13 00:43:50;;;;;;;6.20;5.60;;;16.20;99.90;;;;;;5050385;28;20458;-74
2021/09/13 00:46:16;;;;;;;5.55;5.05;;;16.10;99.90;;;;;;5051963;28;20096;-73
2021/09/13 00:48:41;;;;;;;8.93;4.93;;;16.00;99.90;;;;;;5050445;28;20086;-74
2021/09/13 00:51:07;;;;;;;6.03;5.13;;;16.00;99.90;;;;;;5051725;28;20026;-74
2021/09/13 00:53:32;;;;;;;5.20;4.70;;;15.90;99.90;;;;;;5054077;28;20548;-74
2021/09/13 00:55:59;;;;;;;8.07;6.18;;;15.90;99.90;;;;;;5063269;28;20032;-74
2021/09/13 00:58:26;;;;;;;8.90;5.60;;;15.80;99.90;;;;;;5070231;28;20042;-75
2021/09/13 01:00:52;;;;;;;7.13;5.22;;;15.80;99.90;;;;;;5071704;28;20036;-74
2021/09/13 01:03:18;;;;;;;5.18;4.68;;;15.80;99.90;;;;;;5071449;28;20038;-74
2021/09/13 01:05:43;;;;;;;6.70;5.00;;;15.70;99.90;;;;;;5071705;28;20024;-75
2021/09/13 01:08:09;;;;;;;5.13;4.70;;;15.70;99.90;;;;;;5071681;28;20028;-74
2021/09/13 01:10:35;;;;;;;7.80;5.65;;;15.70;99.90;;;;;;5061237;28;20154;-74
2021/09/13 01:13:01;;;;;;;6.68;5.32;;;15.70;99.90;;;;;;5054141;28;20025;-74
2021/09/13 01:15:26;;;;;;;6.00;5.47;;;15.70;99.90;;;;;;5054190;28;20484;-74
2021/09/13 01:17:52;;;;;;;7.00;4.93;;;15.70;99.90;;;;;;5054259;28;20021;-74
2021/09/13 01:20:18;;;;;;;5.88;5.13;;;15.60;99.90;;;;;;5054137;28;20124;-74
2021/09/13 01:22:46;;;;;;;6.03;5.40;;;15.70;99.90;;;;;;5055453;28;20085;-74
2021/09/13 01:25:12;;;;;;;7.70;4.78;;;15.60;99.90;;;;;;5054114;28;20021;-73
2021/09/13 01:27:37;;;;;;;8.30;5.88;;;15.60;99.90;;;;;;5055322;28;20029;-75
2021/09/13 01:30:05;;;;;;;5.82;5.22;;;15.60;99.90;;;;;;5053876;28;20021;-75
2021/09/13 01:32:31;;;;;;;6.50;5.70;;;15.60;99.90;;;;;;5055397;28;20063;-75
2021/09/13 01:34:57;;;;;;;6.22;4.80;;;15.70;99.90;;;;;;5055188;28;20087;-74
2021/09/13 01:37:22;;;;;;;7.80;5.38;;;15.70;99.90;;;;;;5054979;28;20049;-74
2021/09/13 01:39:48;;;;;;;8.20;4.82;;;15.70;99.90;;;;;;5057500;28;20024;-74
2021/09/13 01:42:13;;;;;;;7.43;5.30;;;15.70;99.90;;;;;;5056098;28;20032;-73
2021/09/13 01:44:39;;;;;;;5.05;4.65;;;15.60;99.90;;;;;;5062475;28;20021;-73
2021/09/13 01:47:04;;;;;;;5.53;4.50;;;15.60;99.90;;;;;;5062083;28;20017;-74
2021/09/13 01:49:30;;;;;;;6.90;5.38;;;15.50;99.90;;;;;;5064045;28;20025;-74
2021/09/13 01:51:57;;;;;;;5.97;5.43;;;15.50;99.90;;;;;;5065363;28;20025;-74
2021/09/13 01:54:23;;;;;;;5.00;4.50;;;15.40;99.90;;;;;;5070612;28;20029;-74
2021/09/13 01:56:48;;;;;;;8.13;5.00;;;15.40;99.90;;;;;;5076550;28;20178;-74
2021/09/13 01:59:14;;;;;;;11.20;4.85;;;15.50;99.90;;;;;;5085795;28;20025;-74
2021/09/13 02:01:39;;;;;;;5.47;4.97;;;15.60;99.90;;;;;;5083293;28;20020;-73
2021/09/13 02:04:05;;;;;;;6.30;4.72;;;15.60;99.90;;;;;;5085195;28;20028;-74
2021/09/13 02:06:31;;;;;;;6.78;5.57;;;15.50;99.90;;;;;;5084518;28;20070;-73
2021/09/13 02:08:58;;;;;;;5.60;5.10;;;15.40;99.90;;;;;;5080001;28;20149;-74
2021/09/13 02:11:24;;;;;;;7.53;5.82;;;15.40;99.90;;;;;;5055890;28;20021;-74
2021/09/13 02:13:49;;;;;;;5.97;5.07;;;15.40;99.90;;;;;;5055073;28;20028;-74
2021/09/13 02:16:15;;;;;;;5.40;4.85;;;15.50;99.90;;;;;;5054734;28;20029;-75
2021/09/13 02:18:41;;;;;;;6.05;5.30;;;15.40;99.90;;;;;;5053628;28;20021;-75
2021/09/13 02:21:06;;;;;;;6.25;5.00;;;15.30;99.90;;;;;;5053064;28;20029;-74
2021/09/13 02:23:32;;;;;;;6.45;5.10;;;15.30;99.90;;;;;;5058620;28;20083;-74
2021/09/13 02:25:58;;;;;;;5.32;4.82;;;15.20;99.90;;;;;;5064630;28;20033;-74
2021/09/13 02:28:23;;;;;;;5.28;4.78;;;15.20;99.90;;;;;;5061289;28;20025;-74
2021/09/13 02:30:49;;;;;;;5.07;4.57;;;15.20;99.90;;;;;;5064132;28;20033;-73
2021/09/13 02:33:14;;;;;;;4.53;4.13;;;15.20;99.90;;;;;;5057150;28;20025;-73
2021/09/13 02:35:40;;;;;;;6.38;4.70;;;15.10;99.90;;;;;;5057458;28;20028;-72
2021/09/13 02:38:05;;;;;;;6.53;5.00;;;15.10;99.90;;;;;;5060058;28;20503;-73
2021/09/13 02:40:31;;;;;;;7.45;5.70;;;15.10;99.90;;;;;;5058505;28;20032;-72
2021/09/13 02:42:57;;;;;;;6.60;5.82;;;15.10;99.90;;;;;;5056991;28;20025;-72
2021/09/13 02:45:22;;;;;;;8.70;5.30;;;15.00;99.90;;;;;;5055630;28;20101;-73
2021/09/13 02:47:48;;;;;;;9.32;5.13;;;15.00;99.90;;;;;;5053908;28;20032;-73
2021/09/13 02:50:13;;;;;;;6.80;4.70;;;15.00;99.90;;;;;;5054038;28;20597;-73
2021/09/13 02:52:39;;;;;;;5.70;5.15;;;14.90;99.90;;;;;;5054018;28;20025;-73
2021/09/13 02:55:06;;;;;;;6.35;5.20;;;14.90;99.90;;;;;;5062196;28;20023;-73
2021/09/13 02:57:32;;;;;;;7.43;5.25;;;14.90;99.90;;;;;;5072744;28;20479;-73
2021/09/13 02:59:58;;;;;;;6.25;5.65;;;14.90;99.90;;;;;;5074039;28;20129;-74
2021/09/13 03:02:23;;;;;;;5.57;4.35;;;14.90;99.90;;;;;;5073630;28;20016;-73
2021/09/13 03:04:49;;;;;;;6.35;4.63;;;14.90;99.90;;;;;;5072440;28;20032;-73
2021/09/13 03:07:15;;;;;;;5.75;5.25;;;14.90;99.90;;;;;;5073508;28;20032;-73
2021/09/13 03:09:41;;;;;;;7.10;5.78;;;14.90;99.90;;;;;;5062213;28;20086;-74
2021/09/13 03:12:07;;;;;;;9.63;5.53;;;14.80;99.90;;;;;;5053435;28;20029;-75
2021/09/13 03:14:33;;;;;;;5.50;5.03;;;14.90;99.90;;;;;;5053553;28;20155;-72
2021/09/13 03:16:59;;;;;;;9.00;4.82;;;15.10;99.90;;;;;;5053517;28;20052;-73
2021/09/13 03:19:25;;;;;;;4.85;4.43;;;15.20;99.90;;;;;;5053257;28;20373;-75
2021/09/13 03:21:51;;;;;;;4.97;4.47;;;15.10;99.90;;;;;;5053481;28;20468;-73
2021/09/13 03:24:18;;;;;;;7.15;4.90;;;15.10;99.90;;;;;;5051760;28;20025;-73
2021/09/13 03:26:44;;;;;;;15.77;5.22;;;15.10;99.90;;;;;;5053319;28;20447;-74
2021/09/13 03:29:10;;;;;;;9.60;5.07;;;15.10;99.90;;;;;;5053095;28;20027;-72
2021/09/13 03:31:35;;;;;;;10.15;5.55;;;15.00;99.90;;;;;;5052961;28;20021;-74
2021/09/13 03:34:01;;;;;;;9.63;5.18;;;15.00;99.90;;;;;;5052684;28;20075;-73
2021/09/13 03:36:27;;;;;;;5.22;4.70;;;15.00;99.90;;;;;;5052931;28;20025;-74
2021/09/13 03:38:52;;;;;;;5.75;4.45;;;15.00;99.90;;;;;;5052925;28;20029;-73
2021/09/13 03:41:18;;;;;;;6.13;4.35;;;15.00;99.90;;;;;;5052709;28;20116;-73
2021/09/13 03:43:44;;;;;;;7.10;4.22;;;15.00;99.90;;;;;;5052755;28;20159;-74
2021/09/13 03:46:10;;;;;;;6.60;5.22;;;15.00;99.90;;;;;;5053885;28;20055;-72
2021/09/13 03:48:35;;;;;;;6.35;5.20;;;15.00;99.90;;;;;;5056156;28;20499;-73
2021/09/13 03:51:01;;;;;;;7.18;4.90;;;15.00;99.90;;;;;;5052009;28;20119;-73
2021/09/13 03:53:26;;;;;;;6.00;5.00;;;15.10;99.90;;;;;;5054277;28;20025;-72
2021/09/13 03:55:52;;;;;;;6.93;4.82;;;15.10;99.90;;;;;;5064471;28;20104;-73
2021/09/13 03:58:18;;;;;;;8.23;5.18;;;15.10;99.90;;;;;;5071412;28;20021;-72
2021/09/13 04:00:44;;;;;;;6.22;4.80;;;15.10;99.90;;;;;;5072649;28;20033;-73
2021/09/13 04:03:14;;;;;;;6.28;4.88;;;15.10;99.90;;;;;;5072541;28;20484;-73
2021/09/13 04:05:45;;;;;;;5.15;4.65;;;15.00;99.90;;;;;;5072661;28;20020;-74
2021/09/13 04:08:33;;;;;;;7.25;4.95;;;15.10;99.90;;;;;;5071278;28;20069;-73
2021/09/13 04:13:24;;;;;;;8.48;5.53;;;15.20;99.90;;;;;;5052635;28;20028;-75
2021/09/13 04:15:50;;;;;;;8.95;5.22;;;15.30;99.90;;;;;;5052645;28;20485;-72
2021/09/13 04:18:15;;;;;;;5.93;5.32;;;15.40;99.90;;;;;;5052921;28;20107;-73
2021/09/13 04:20:41;;;;;;;8.70;6.07;;;15.30;99.90;;;;;;5054280;28;20060;-73
2021/09/13 04:23:06;;;;;;;7.10;5.00;;;15.20;99.90;;;;;;5053762;28;20044;-73
2021/09/13 04:25:32;;;;;;;10.38;5.07;;;15.10;99.90;;;;;;5051542;28;20452;-73
2021/09/13 04:27:58;;;;;;;5.97;5.35;;;14.90;99.90;;;;;;5052345;28;20593;-72
2021/09/13 04:30:25;;;;;;;5.60;4.65;;;14.80;99.90;;;;;;5052152;28;20013;-72
2021/09/13 04:32:51;;;;;;;9.57;5.82;;;14.80;99.90;;;;;;5050524;28;20127;-73
2021/09/13 04:35:16;;;;;;;7.57;4.85;;;14.70;99.90;;;;;;5052317;28;20449;-73
2021/09/13 04:37:42;;;;;;;7.72;5.90;;;14.70;99.90;;;;;;5052226;28;20021;-73
2021/09/13 04:40:08;;;;;;;8.48;5.57;;;14.70;99.90;;;;;;5056556;28;20051;-73
2021/09/13 04:42:34;;;;;;;8.70;6.32;;;14.80;99.90;;;;;;5061847;28;20024;-73
2021/09/13 04:44:59;;;;;;;6.80;5.18;;;14.80;99.90;;;;;;5061771;28;20021;-73
2021/09/13 04:47:25;;;;;;;6.47;5.63;;;14.80;99.90;;;;;;5063515;28;20021;-71
2021/09/13 04:49:50;;;;;;;7.15;5.40;;;14.70;99.90;;;;;;5069116;28;20092;-72
2021/09/13 04:52:16;;;;;;;8.27;6.15;;;14.70;99.90;;;;;;5071716;28;20040;-72
2021/09/13 04:54:41;;;;;;;10.85;6.43;;;14.80;99.90;;;;;;5073492;28;20031;-73
2021/09/13 04:57:07;;;;;;;10.60;6.00;;;14.80;99.90;;;;;;5069738;28;20381;-73
2021/09/13 04:59:33;;;;;;;7.93;5.90;;;14.70;99.90;;;;;;5071435;28;20041;-73
2021/09/13 05:01:58;;;;;;;7.43;6.07;;;14.70;99.90;;;;;;5072097;28;20383;-73
2021/09/13 05:04:24;;;;;;;13.52;6.28;;;14.70;99.90;;;;;;5071920;28;20048;-73
2021/09/13 05:06:49;;;;;;;14.73;6.80;;;14.70;99.90;;;;;;5070530;28;20483;-71
2021/09/13 05:09:15;;;;;;;10.48;5.93;;;14.70;99.90;;;;;;5071543;28;20033;-72
2021/09/13 05:11:42;;;;;;;14.20;6.22;;;14.70;99.90;;;;;;5050551;28;20021;-73
2021/09/13 05:14:08;;;;;;;10.50;6.03;;;14.70;99.90;;;;;;5050434;28;20028;-73
2021/09/13 05:16:34;;;;;;;12.45;6.65;;;14.80;99.90;;;;;;5051732;28;20029;-73
2021/09/13 05:18:59;;;;;;;11.13;6.38;;;14.80;99.90;;;;;;5051673;28;20543;-74
2021/09/13 05:21:25;;;;;;;11.30;6.85;;;14.80;99.90;;;;;;5050328;28;20477;-73
2021/09/13 05:23:51;;;;;;;9.40;6.28;;;14.80;99.90;;;;;;5051286;28;20473;-73
2021/09/13 05:26:16;;;;;;;10.60;6.47;;;14.80;99.90;;;;;;5050158;28;20053;-73
2021/09/13 05:28:42;;;;;;;7.85;5.60;;;14.90;99.90;;;;;;5051646;28;20032;-73
2021/09/13 05:31:07;;;;;;;8.10;5.35;;;14.90;99.90;;;;;;5051306;28;20021;-74
2021/09/13 05:33:33;;;;;;;11.63;4.95;;;15.00;99.90;;;;;;5051307;28;20033;-72
2021/09/13 05:35:58;;;;;;;15.15;6.47;;;15.20;99.90;;;;;;5051343;28;20031;-72
2021/09/13 05:38:24;;;;;;;9.57;5.57;;;15.30;99.90;;;;;;5051194;28;20036;-72
2021/09/13 05:40:51;;;;;;;6.68;5.15;;;15.50;99.90;;;;;;5051408;28;20025;-73
2021/09/13 05:43:17;;;;;;;10.80;5.95;;;15.90;99.90;;;;;;5050246;28;20040;-73
2021/09/13 05:45:43;;;;;;;10.70;5.63;;;16.10;99.90;;;;;;5051266;28;20025;-73
2021/09/13 05:48:08;;;;;;;9.85;4.53;;;16.20;99.90;;;;;;5052775;28;20029;-74
2021/09/13 05:50:34;;;;;;;9.45;5.38;;;16.20;99.90;;;;;;5050807;28;20017;-73
2021/09/13 05:52:59;;;;;;;8.10;5.60;;;16.20;99.90;;;;;;5051199;28;20025;-73
2021/09/13 05:55:25;;;;;;;8.30;5.85;;;16.10;99.90;;;;;;5060639;28;20400;-73
2021/09/13 05:57:51;;;;;;;7.00;4.85;;;16.10;99.90;;;;;;5074059;28;20108;-73
2021/09/13 06:00:17;;;;;;;13.75;5.15;;;16.00;99.90;;;;;;5074485;28;20017;-74
2021/09/13 06:02:43;;;;;;;9.65;5.20;;;16.00;99.90;;;;;;5074545;28;20032;-74
2021/09/13 06:05:09;;;;;;;14.48;5.30;;;16.00;99.90;;;;;;5075015;28;20040;-73
2021/09/13 06:07:34;;;;;;;9.35;5.70;;;15.90;99.90;;;;;;5074645;28;20021;-73
2021/09/13 06:10:00;;;;;;;17.00;5.75;;;15.90;99.90;;;;;;5060378;28;20079;-74
2021/09/13 06:12:26;;;;;;;9.93;5.78;;;15.80;99.90;;;;;;5054533;28;20428;-74
2021/09/13 06:14:51;;;;;;;8.88;5.05;;;15.90;99.90;;;;;;5053267;28;20123;-74
2021/09/13 06:17:17;;;;;;;9.57;5.95;;;15.90;99.90;;;;;;5054276;28;20017;-74
2021/09/13 06:19:42;;;;;;;12.40;6.18;;;16.00;99.90;;;;;;5053986;28;20438;-73
2021/09/13 06:22:08;;;;;;;10.05;5.50;;;16.00;99.90;;;;;;5053062;28;20461;-74
2021/09/13 06:24:34;;;;;;;9.32;5.93;;;16.10;99.90;;;;;;5053010;28;20524;-73
2021/09/13 06:26:59;;;;;;;8.68;5.32;;;16.10;99.90;;;;;;5052514;28;20025;-74
2021/09/13 06:29:25;;;;;;;9.02;5.90;;;16.00;99.90;;;;;;5054006;28;20029;-74
2021/09/13 06:31:50;;;;;;;10.68;5.35;;;16.10;99.90;;;;;;5053828;28;20021;-73
2021/09/13 06:34:18;;;;;;;6.60;5.28;;;16.10;99.90;;;;;;5054370;28;20033;-72
2021/09/13 06:36:44;;;;;;;14.18;5.80;;;16.10;99.90;;;;;;5053863;28;20096;-73
2021/09/13 06:39:10;;;;;;;14.65;6.95;;;16.30;99.90;;;;;;5053830;28;20017;-73
2021/09/13 06:41:36;;;;;;;8.30;6.07;;;16.40;99.90;;;;;;5053829;28;20029;-73
2021/09/13 06:44:03;;;;;;;9.32;6.40;;;16.50;99.90;;;;;;5053565;28;20473;-72
2021/09/13 06:46:35;;;;;;;6.05;5.55;;;16.50;99.90;;;;;;5053795;28;20041;-72
2021/09/13 06:49:01;;;;;;;7.25;5.57;;;16.70;99.90;;;;;;5052513;28;20017;-72
2021/09/13 06:51:27;;;;;;;9.13;5.78;;;17.10;99.90;;;;;;5054543;28;20471;-73
2021/09/13 06:53:52;;;;;;;8.40;5.25;;;17.20;99.90;;;;;;5052183;28;20025;-76
2021/09/13 06:56:18;;;;;;;9.02;5.50;;;17.20;99.90;;;;;;5060183;28;20033;-79
2021/09/13 06:58:43;;;;;;;9.35;5.78;;;17.40;99.90;;;;;;5056726;28;20017;-78
2021/09/13 07:01:09;;;;;;;14.75;6.40;;;17.40;99.90;;;;;;5059147;28;20116;-78
2021/09/13 07:03:35;;;;;;;9.85;6.30;;;17.50;99.90;;;;;;5053965;28;20025;-78
2021/09/13 07:06:01;;;;;;;7.63;5.90;;;17.50;99.90;;;;;;5053578;28;20021;-79
2021/09/13 07:08:26;;;;;;;9.90;6.95;;;17.50;99.90;;;;;;5054107;28;20044;-78
2021/09/13 07:10:53;;;;;;;8.52;6.22;;;17.50;99.90;;;;;;5054220;28;20412;-78
2021/09/13 07:13:19;;;;;;;8.40;6.60;;;17.70;99.90;;;;;;5054267;28;20131;-79
2021/09/13 07:15:45;;;;;;;11.85;6.07;;;18.00;99.90;;;;;;5055081;28;20029;-78
2021/09/13 07:18:10;;;;;;;8.90;6.50;;;18.10;99.90;;;;;;5053739;28;20514;-78
2021/09/13 07:20:36;;;;;;;7.78;6.32;;;17.90;99.90;;;;;;5052618;28;20025;-78
2021/09/13 07:23:01;;;;;;;7.85;6.45;;;18.10;99.90;;;;;;5054702;28;20025;-78
2021/09/13 07:25:27;;;;;;;8.88;6.18;;;18.30;99.90;;;;;;5052735;28;20108;-78
2021/09/13 07:27:53;;;;;;;10.05;7.45;;;18.40;99.90;;;;;;5054187;28;20041;-78
2021/09/13 07:30:18;;;;;;;8.65;6.55;;;18.50;99.90;;;;;;5053958;28;20055;-78
2021/09/13 07:32:44;;;;;;;11.02;6.13;;;18.60;99.90;;;;;;5054429;28;20028;-78
2021/09/13 07:35:10;;;;;;;6.47;5.88;;;18.70;99.90;;;;;;5054569;28;20025;-79
2021/09/13 07:37:37;;;;;;;8.18;5.70;;;18.80;99.90;;;;;;5054627;28;20096;-78
2021/09/13 07:40:08;;;;;;;6.57;5.70;;;18.70;99.90;;;;;;5054670;28;20029;-79
2021/09/13 07:42:34;;;;;;;10.00;6.32;;;18.70;99.90;;;;;;5054053;28;20400;-79
2021/09/13 07:45:01;;;;;;;8.45;5.97;;;18.50;99.90;;;;;;5052533;28;20037;-79
2021/09/13 07:47:28;;;;;;;7.20;5.90;;;18.80;99.90;;;;;;5053186;28;20021;-79
2021/09/13 07:49:53;;;;;;;7.18;5.80;;;18.90;99.90;;;;;;5053232;28;20043;-78
2021/09/13 07:52:19;;;;;;;7.93;6.18;;;18.80;99.90;;;;;;5053025;28;20112;-78
2021/09/13 07:54:45;;;;;;;8.07;6.00;;;19.20;99.90;;;;;;5052670;28;20115;-78
2021/09/13 07:57:10;;;;;;;7.72;5.72;;;19.00;99.90;;;;;;5053134;28;20063;-78
2021/09/13 07:59:36;;;;;;;7.75;5.38;;;18.80;99.90;;;;;;5057484;28;20036;-78
2021/09/13 08:02:02;;;;;;;11.82;5.82;;;19.00;99.90;;;;;;5053960;28;20073;-80
2021/09/13 08:04:27;;;;;;;7.32;5.40;;;19.00;99.90;;;;;;5053016;28;20037;-79
2021/09/13 08:06:53;;;;;;;9.38;4.97;;;19.20;99.90;;;;;;5053632;28;20051;-80
2021/09/13 08:09:19;;;;;;;5.32;4.82;;;19.30;99.90;;;;;;5052889;28;20024;-79
2021/09/13 08:11:44;;;;;;;5.13;4.45;;;19.50;99.90;;;;;;5053080;28;20361;-81
2021/09/13 08:14:10;;;;;;;5.57;5.00;;;19.70;99.90;;;;;;5053023;28;20029;-82
2021/09/13 08:16:35;;;;;;;8.10;4.60;;;19.70;99.90;;;;;;5053172;28;20029;-78
2021/09/13 08:19:01;;;;;;;5.72;4.00;;;19.70;99.90;;;;;;5052410;28;20044;-79
2021/09/13 08:21:27;;;;;;;7.95;4.22;;;19.90;99.90;;;;;;5053872;28;20072;-79
2021/09/13 08:23:54;;;;;;;10.23;4.30;;;20.00;99.90;;;;;;5057273;28;20100;-79
2021/09/13 08:26:20;;;;;;;5.07;4.10;;;20.10;99.90;;;;;;5052600;28;20104;-80
2021/09/13 08:28:45;;;;;;;6.22;4.90;;;20.00;99.90;;;;;;5052468;28;20121;-84
2021/09/13 08:31:11;;;;;;;8.80;4.25;;;20.30;99.90;;;;;;5054801;28;20029;-80
2021/09/13 08:33:37;;;;;;;5.43;4.10;;;20.40;99.90;;;;;;5053923;28;20021;-78
2021/09/13 08:36:04;;;;;;;5.18;4.28;;;20.60;99.90;;;;;;5054374;28;20025;-79
2021/09/13 08:38:30;;;;;;;4.13;3.67;;;20.60;99.90;;;;;;5052534;28;20049;-79
2021/09/13 08:40:58;;;;;;;4.35;3.13;;;20.70;99.90;;;;;;5052687;28;20423;-81
2021/09/13 08:43:24;;;;;;;5.38;3.38;;;20.70;99.90;;;;;;5052114;28;20051;-79
2021/09/13 08:45:57;;;;;;;3.60;3.05;;;20.40;99.90;;;;;;5052986;28;20045;-79
2021/09/13 08:53:24;;;;;;;7.60;3.70;;;21.10;99.90;;;;;;5054203;28;20036;-79
2021/09/13 08:55:50;;;;;;;3.53;3.22;;;21.10;99.90;;;;;;5052657;28;20032;-80
2021/09/13 08:58:21;;;;;;;4.60;3.78;;;20.90;99.90;;;;;;5053808;28;20021;-80
2021/09/13 09:00:47;;;;;;;;;;;21.20;99.90;;;;;;5052686;28;20021;-79
2021/09/13 09:03:15;;;;;;;10.60;3.20;;;21.40;99.90;;;;;;5051527;28;19909;-77
2021/09/13 09:05:45;;;;;;;3.72;3.15;;;21.40;99.90;;;;;;5053410;28;20025;-77
2021/09/13 09:08:27;;;;;;;5.20;4.10;;;21.60;99.90;;;;;;5054028;28;20029;-79
2021/09/13 09:11:02;;;;;;;4.60;3.03;;;21.60;99.90;;;;;;5053788;28;20025;-79
2021/09/13 09:13:41;;;;;;;3.60;3.30;;;21.50;99.90;;;;;;5052367;28;20036;-79
2021/09/13 09:16:07;;;;;;;6.75;3.20;;;21.70;99.90;;;;;;5053710;28;20090;-79
2021/09/13 09:18:47;;;;;;;4.25;3.22;;;21.70;99.90;;;;;;5053411;28;20032;-80
2021/09/13 09:21:30;;;;;;;4.18;3.40;;;22.00;99.90;;;;;;5052525;28;20040;-79
2021/09/13 09:24:02;;;;;;;4.60;3.25;;;22.10;99.90;;;;;;5053560;28;20029;-80
2021/09/13 09:26:29;;;;;;;4.60;3.10;;;22.00;99.90;;;;;;5051932;28;20025;-79
2021/09/13 09:28:56;;;;;;;4.07;3.38;;;21.80;99.90;;;;;;5053357;28;20021;-79
2021/09/13 09:31:37;;;;;;;4.47;3.42;;;21.90;99.90;;;;;;5055105;28;20419;-78
2021/09/13 09:34:22;;;;;;;7.22;3.45;;;22.20;99.90;;;;;;5057703;28;20424;-79
2021/09/13 09:37:06;;;;;;;5.57;3.55;;;22.40;99.90;;;;;;5057678;28;20028;-78
2021/09/13 09:39:36;;;;;;;3.38;2.72;;;22.10;99.90;;;;;;5056112;28;20104;-78
2021/09/13 09:42:04;;;;;;;2.67;2.45;;;22.40;99.90;;;;;;5057052;28;20028;-79
2021/09/13 09:44:32;;;;;;;2.35;2.15;;;22.60;99.90;;;;;;5056497;28;20032;-78
2021/09/13 09:47:02;;;;;;;3.97;2.92;;;22.70;99.90;;;;;;5057545;28;20048;-80
2021/09/13 09:49:43;;;;;;;2.33;2.00;;;22.70;99.90;;;;;;5056268;28;20021;-78
2021/09/13 09:52:09;;;;;;;4.05;3.15;;;22.70;99.90;;;;;;5058557;28;20274;-79
2021/09/13 09:54:35;;;;;;;3.63;2.92;;;22.70;99.90;;;;;;5057501;28;20048;-79
2021/09/13 09:57:09;;;;;;;3.08;2.65;;;22.70;99.90;;;;;;5058119;28;20032;-78
2021/09/13 09:59:36;;;;;;;3.55;3.10;;;22.50;99.90;;;;;;5060278;28;20123;-79
2021/09/13 10:02:19;;;;;;;5.47;2.75;;;22.70;99.90;;;;;;5058630;28;20036;-79
2021/09/13 10:04:49;;;;;;;4.95;3.13;;;22.90;99.90;;;;;;5058853;28;20033;-80
2021/09/13 10:07:16;;;;;;;3.00;2.53;;;22.90;99.90;;;;;;5060174;28;20025;-77
2021/09/13 10:09:43;;;;;;;4.40;2.58;;;22.90;99.90;;;;;;5058343;28;20037;-82
2021/09/13 10:12:10;;;;;;;2.85;2.65;;;23.10;99.90;;;;;;5059560;28;20025;-80
2021/09/13 10:14:36;;;;;;;3.42;2.90;;;23.20;99.90;;;;;;5059390;28;20021;-78
2021/09/13 10:17:04;;;;;;;3.42;2.80;;;23.30;99.90;;;;;;5056675;28;20025;-77
2021/09/13 10:19:31;;;;;;;3.67;3.08;;;23.30;99.90;;;;;;5057700;28;20044;-78
2021/09/13 10:21:57;;;;;;;4.07;3.50;;;23.40;99.90;;;;;;5060929;28;20032;-77
2021/09/13 10:24:27;;;;;;;3.45;3.15;;;23.50;99.90;;;;;;5056483;28;20328;-78
2021/09/13 10:26:56;;;;;;;3.10;2.90;;;23.40;99.90;;;;;;5056572;28;20113;-80
2021/09/13 10:29:26;;;;;;;5.00;3.10;;;23.50;99.90;;;;;;5056916;28;20039;-77
2021/09/13 10:31:52;;;;;;;2.95;2.65;;;23.60;99.90;;;;;;5059910;28;20029;-77
2021/09/13 10:34:18;;;;;;;3.60;3.30;;;23.60;99.90;;;;;;5057162;28;20029;-78
2021/09/13 10:37:01;;;;;;;6.47;3.50;;;23.80;99.90;;;;;;5056755;28;20021;-78
2021/09/13 10:39:47;;;;;;;3.90;3.42;;;23.90;99.90;;;;;;5056219;28;20120;-79
2021/09/13 10:42:28;;;;;;;6.15;3.25;;;23.60;99.90;;;;;;5056447;28;20057;-79
2021/09/13 10:45:13;;;;;;;4.82;3.33;;;23.60;99.90;;;;;;5055442;28;20029;-78
2021/09/13 10:47:42;;;;;;;8.30;3.60;;;23.80;99.90;;;;;;5055989;28;20391;-79
2021/09/13 10:50:25;;;;;;;3.42;3.13;;;23.90;99.90;;;;;;5056011;28;20082;-78
2021/09/13 10:52:56;;;;;;;5.75;2.92;;;24.20;99.90;;;;;;5069373;28;20021;-78
2021/09/13 10:55:24;;;;;;;3.05;2.78;;;24.50;99.90;;;;;;5056412;28;20021;-79
2021/09/13 10:58:09;;;;;;;3.53;3.08;;;24.40;99.90;;;;;;5054340;28;20519;-79
2021/09/13 11:00:41;;;;;;;3.95;3.40;;;24.20;99.90;;;;;;5055985;28;20032;-79
2021/09/13 11:03:22;;;;;;;3.67;3.00;;;24.60;99.90;;;;;;5056443;28;20361;-79
2021/09/13 11:06:06;;;;;;;5.10;3.72;;;24.80;99.90;;;;;;5055025;28;20021;-78
2021/09/13 11:08:50;;;;;;;4.10;3.67;;;24.50;99.90;;;;;;5055329;28;20029;-79
2021/09/13 11:11:16;;;;;;;2.80;2.60;;;24.10;99.90;;;;;;5056025;28;20109;-80
2021/09/13 11:13:44;;;;;;;4.50;2.80;;;24.40;99.90;;;;;;5055554;28;20032;-78
2021/09/13 11:16:14;;;;;;;3.08;2.67;;;24.50;99.90;;;;;;5054312;28;20369;-79
2021/09/13 11:18:42;;;;;;;4.10;2.83;;;24.30;99.90;;;;;;5057320;28;20444;-79
2021/09/13 11:21:30;;;;;;;5.30;2.85;;;24.20;99.90;;;;;;5056470;28;20021;-79
2021/09/13 11:24:01;;;;;;;3.10;2.70;;;24.60;99.90;;;;;;5054843;28;20028;-79
2021/09/13 11:26:35;;;;;;;;;;;25.00;99.90;;;;;;5054528;28;20063;-81
2021/09/13 11:29:20;;;;;;;3.08;2.78;;;25.30;99.90;;;;;;5055849;28;19908;-79
2021/09/13 11:32:07;;;;;;;2.47;2.20;;;24.90;99.90;;;;;;5055779;28;20025;-78
2021/09/13 11:34:35;;;;;;;4.18;3.30;;;24.80;99.90;;;;;;5054947;28;20029;-79
2021/09/13 11:37:14;;;;;;;3.08;2.78;;;25.00;99.90;;;;;;5056823;28;20576;-79
2021/09/13 11:39:43;;;;;;;2.58;2.38;;;25.00;99.90;;;;;;5086168;28;20372;-81
2021/09/13 11:42:16;;;;;;;2.67;2.47;;;25.00;99.90;;;;;;5059184;28;20055;-77
2021/09/13 11:44:51;;;;;;;3.47;2.63;;;25.00;99.90;;;;;;5056442;28;20492;-78
2021/09/13 11:47:19;;;;;;;3.25;2.40;;;25.00;99.90;;;;;;5055021;28;20370;-79
2021/09/13 11:49:52;;;;;;;2.95;2.72;;;24.80;99.90;;;;;;5054003;28;20028;-80
2021/09/13 11:52:28;;;;;;;4.78;3.15;;;24.90;99.90;;;;;;5055259;28;20055;-79
2021/09/13 11:55:17;;;;;;;3.00;2.70;;;25.00;99.90;;;;;;5055933;28;20017;-79
2021/09/13 11:57:53;;;;;;;4.63;2.30;;;25.00;99.90;;;;;;5071140;28;20017;-79
2021/09/13 12:00:27;;;;;;;3.42;2.95;;;24.90;99.90;;;;;;5064116;28;20021;-79
2021/09/13 12:02:57;;;;;;;2.55;2.33;;;25.50;99.90;;;;;;5055814;28;20021;-79
2021/09/13 12:05:29;;;;;;;3.00;2.70;;;25.40;99.90;;;;;;5054851;28;20369;-79
2021/09/13 12:07:57;;;;;;;3.22;2.95;;;25.10;99.90;;;;;;5054500;28;20366;-80
2021/09/13 12:10:30;;;;;;;3.22;3.03;;;24.80;99.90;;;;;;5054136;28;20021;-80
2021/09/13 12:13:01;;;;;;;2.60;2.40;;;25.30;99.90;;;;;;5054508;28;20215;-79
2021/09/13 12:15:30;;;;;;;2.92;2.35;;;25.40;99.90;;;;;;5054609;28;20055;-78
2021/09/13 12:18:03;;;;;;;3.15;2.53;;;25.70;99.90;;;;;;5057049;28;20040;-80
2021/09/13 12:20:45;;;;;;;3.33;2.53;;;25.80;99.90;;;;;;5059009;28;20146;-79
2021/09/13 12:23:42;;;;;;;3.53;2.88;;;26.00;99.90;;;;;;5059595;28;20032;-78
2021/09/13 12:26:09;;;;;;;4.32;2.78;;;26.00;99.90;;;;;;5060869;28;20029;-79
2021/09/13 12:28:36;;;;;;;5.88;3.75;;;25.40;99.90;;;;;;5058286;28;20029;-79
2021/09/13 12:31:07;;;;;;;3.20;2.90;;;25.60;99.90;;;;;;5056140;28;20021;-79
2021/09/13 12:33:47;;;;;;;3.00;2.05;;;25.90;99.90;;;;;;5057550;28;20480;-78
2021/09/13 12:36:16;;;;;;;5.82;2.80;;;26.00;99.90;;;;;;5057263;28;20022;-78
2021/09/13 12:38:43;;;;;;;2.55;2.33;;;26.10;99.90;;;;;;5057158;28;20032;-80
2021/09/13 12:41:09;;;;;;;3.60;2.75;;;26.10;99.90;;;;;;5058005;28;20403;-79
2021/09/13 12:43:40;;;;;;;2.83;2.63;;;25.90;99.90;;;;;;5055445;28;20028;-79
2021/09/13 12:46:13;;;;;;;2.65;2.45;;;25.90;99.90;;;;;;5055060;28;20029;-78
2021/09/13 12:48:41;;;;;;;2.30;2.10;;;25.90;99.90;;;;;;5055392;28;20029;-79
2021/09/13 12:51:15;;;;;;;3.33;2.60;;;26.00;99.90;;;;;;5054030;28;20079;-79
2021/09/13 12:53:52;;;;;;;2.35;2.10;;;26.10;99.90;;;;;;5053458;28;20033;-80
2021/09/13 12:56:21;;;;;;;2.83;2.47;;;25.80;99.90;;;;;;5055135;28;20060;-79